sensor_id;sensor_type;location;lat;lon;timestamp;temperature;humidity
45849;DHT22;31567;54.600;9.842;2023-02-02T00:00:02;6.80;99.90
45849;DHT22;31567;54.600;9.842;2023-02-02T00:03:42;6.80;99.90
45849;DHT22;31567;54.600;9.842;2023-02-02T00:07:21;6.80;99.90
45849;DHT22;31567;54.600;9.842;2023-02-02T00:11:01;6.80;99.90
45849;DHT22;31567;54.600;9.842;2023-02-02T00:14:41;6.70;99.90
45849;DHT22;31567;54.600;9.842;2023-02-02T00:18:20;6.70;99.90
45849;DHT22;31567;54.600;9.842;2023-02-02T00:22:00;6.60;99.90
45849;DHT22;31567;54.600;9.842;2023-02-02T00:25:39;6.50;99.90
45849;DHT22;31567;54.600;9.842;2023-02-02T00:29:22;6.50;99.90
45849;DHT22;31567;54.600;9.842;2023-02-02T00:33:01;6.50;99.90
45849;DHT22;31567;54.600;9.842;2023-02-02T00:36:42;6.40;99.90
45849;DHT22;31567;54.600;9.842;2023-02-02T00:40:21;6.30;99.90
45849;DHT22;31567;54.600;9.842;2023-02-02T00:44:01;6.30;99.90
45849;DHT22;31567;54.600;9.842;2023-02-02T00:47:59;6.20;99.90
45849;DHT22;31567;54.600;9.842;2023-02-02T00:51:39;6.20;99.90
45849;DHT22;31567;54.600;9.842;2023-02-02T00:55:19;6.10;99.90
45849;DHT22;31567;54.600;9.842;2023-02-02T00:59:00;6.20;99.90
45849;DHT22;31567;54.600;9.842;2023-02-02T01:02:40;6.20;99.90
45849;DHT22;31567;54.600;9.842;2023-02-02T01:06:19;6.20;99.90
45849;DHT22;31567;54.600;9.842;2023-02-02T01:09:59;6.30;99.90
45849;DHT22;31567;54.600;9.842;2023-02-02T01:13:39;6.30;99.90
45849;DHT22;31567;54.600;9.842;2023-02-02T01:17:18;6.30;99.90
45849;DHT22;31567;54.600;9.842;2023-02-02T01:20:58;6.40;99.90
45849;DHT22;31567;54.600;9.842;2023-02-02T01:24:38;6.40;99.90
45849;DHT22;31567;54.600;9.842;2023-02-02T01:28:18;6.40;99.40
45849;DHT22;31567;54.600;9.842;2023-02-02T01:31:57;6.30;99.10
45849;DHT22;31567;54.600;9.842;2023-02-02T01:35:47;6.40;98.90
45849;DHT22;31567;54.600;9.842;2023-02-02T01:39:27;6.30;99.00
45849;DHT22;31567;54.600;9.842;2023-02-02T01:47:14;6.40;99.50
45849;DHT22;31567;54.600;9.842;2023-02-02T01:50:59;6.30;99.60
45849;DHT22;31567;54.600;9.842;2023-02-02T01:54:43;6.30;99.70
45849;DHT22;31567;54.600;9.842;2023-02-02T01:58:29;6.20;99.90
45849;DHT22;31567;54.600;9.842;2023-02-02T02:02:10;6.20;99.90
45849;DHT22;31567;54.600;9.842;2023-02-02T02:06:00;6.20;99.90
45849;DHT22;31567;54.600;9.842;2023-02-02T02:09:41;6.10;99.90
45849;DHT22;31567;54.600;9.842;2023-02-02T02:13:23;6.10;99.90
45849;DHT22;31567;54.600;9.842;2023-02-02T02:17:39;6.00;99.90
45849;DHT22;31567;54.600;9.842;2023-02-02T02:37:56;6.00;99.90
45849;DHT22;31567;54.600;9.842;2023-02-02T02:41:41;6.10;99.90
45849;DHT22;31567;54.600;9.842;2023-02-02T02:45:24;6.10;99.90
45849;DHT22;31567;54.600;9.842;2023-02-02T02:49:10;6.20;99.90
45849;DHT22;31567;54.600;9.842;2023-02-02T02:53:01;6.20;99.90
45849;DHT22;31567;54.600;9.842;2023-02-02T02:57:13;6.20;99.90
45849;DHT22;31567;54.600;9.842;2023-02-02T03:00:57;6.20;99.90
45849;DHT22;31567;54.600;9.842;2023-02-02T03:12:46;6.10;99.90
45849;DHT22;31567;54.600;9.842;2023-02-02T03:16:26;6.10;99.90
45849;DHT22;31567;54.600;9.842;2023-02-02T03:20:06;6.10;99.90
45849;DHT22;31567;54.600;9.842;2023-02-02T03:23:45;6.10;99.90
45849;DHT22;31567;54.600;9.842;2023-02-02T03:27:25;6.10;99.90
45849;DHT22;31567;54.600;9.842;2023-02-02T03:31:05;6.00;99.90
45849;DHT22;31567;54.600;9.842;2023-02-02T03:34:45;6.00;99.90
45849;DHT22;31567;54.600;9.842;2023-02-02T03:38:25;6.00;99.90
45849;DHT22;31567;54.600;9.842;2023-02-02T03:42:04;6.00;99.90
45849;DHT22;31567;54.600;9.842;2023-02-02T03:45:44;6.00;99.90
45849;DHT22;31567;54.600;9.842;2023-02-02T03:49:23;6.00;99.90
45849;DHT22;31567;54.600;9.842;2023-02-02T03:53:03;6.10;99.90
45849;DHT22;31567;54.600;9.842;2023-02-02T03:56:43;6.10;99.90
45849;DHT22;31567;54.600;9.842;2023-02-02T04:00:23;6.10;99.90
45849;DHT22;31567;54.600;9.842;2023-02-02T04:04:02;6.00;99.90
45849;DHT22;31567;54.600;9.842;2023-02-02T04:07:42;6.00;99.90
45849;DHT22;31567;54.600;9.842;2023-02-02T04:11:21;6.00;99.90
45849;DHT22;31567;54.600;9.842;2023-02-02T04:15:01;6.00;99.90
45849;DHT22;31567;54.600;9.842;2023-02-02T04:18:40;5.90;99.90
45849;DHT22;31567;54.600;9.842;2023-02-02T04:22:20;5.90;99.90
45849;DHT22;31567;54.600;9.842;2023-02-02T04:25:59;5.90;99.90
45849;DHT22;31567;54.600;9.842;2023-02-02T04:29:39;5.80;99.90
45849;DHT22;31567;54.600;9.842;2023-02-02T04:33:20;5.80;99.90
45849;DHT22;31567;54.600;9.842;2023-02-02T04:36:59;5.70;99.90
45849;DHT22;31567;54.600;9.842;2023-02-02T04:40:44;5.70;99.90
45849;DHT22;31567;54.600;9.842;2023-02-02T04:44:23;5.70;99.90
45849;DHT22;31567;54.600;9.842;2023-02-02T04:48:04;5.70;99.90
45849;DHT22;31567;54.600;9.842;2023-02-02T04:51:43;5.60;99.90
45849;DHT22;31567;54.600;9.842;2023-02-02T04:55:23;5.60;99.90
45849;DHT22;31567;54.600;9.842;2023-02-02T04:59:03;5.60;99.90
45849;DHT22;31567;54.600;9.842;2023-02-02T05:02:42;5.60;99.90
45849;DHT22;31567;54.600;9.842;2023-02-02T05:06:22;5.70;99.90
45849;DHT22;31567;54.600;9.842;2023-02-02T05:10:03;5.80;99.90
45849;DHT22;31567;54.600;9.842;2023-02-02T05:13:47;5.80;99.90
45849;DHT22;31567;54.600;9.842;2023-02-02T05:17:27;5.80;99.90
45849;DHT22;31567;54.600;9.842;2023-02-02T05:21:07;5.80;99.90
45849;DHT22;31567;54.600;9.842;2023-02-02T05:24:46;5.90;99.90
45849;DHT22;31567;54.600;9.842;2023-02-02T05:28:26;5.90;99.90
45849;DHT22;31567;54.600;9.842;2023-02-02T05:32:06;5.90;99.90
45849;DHT22;31567;54.600;9.842;2023-02-02T05:35:46;6.00;99.90
45849;DHT22;31567;54.600;9.842;2023-02-02T05:39:26;6.00;99.90
45849;DHT22;31567;54.600;9.842;2023-02-02T05:43:06;6.00;99.90
45849;DHT22;31567;54.600;9.842;2023-02-02T05:46:45;6.10;99.90
45849;DHT22;31567;54.600;9.842;2023-02-02T05:50:25;6.10;99.90
45849;DHT22;31567;54.600;9.842;2023-02-02T05:54:04;6.10;99.90
45849;DHT22;31567;54.600;9.842;2023-02-02T05:57:44;6.10;99.90
45849;DHT22;31567;54.600;9.842;2023-02-02T06:01:23;6.10;99.90
45849;DHT22;31567;54.600;9.842;2023-02-02T06:05:03;6.10;99.90
45849;DHT22;31567;54.600;9.842;2023-02-02T06:08:43;6.10;99.90
45849;DHT22;31567;54.600;9.842;2023-02-02T06:12:22;6.10;99.90
45849;DHT22;31567;54.600;9.842;2023-02-02T06:16:02;6.10;99.90
45849;DHT22;31567;54.600;9.842;2023-02-02T06:19:42;6.10;99.90
45849;DHT22;31567;54.600;9.842;2023-02-02T06:23:21;6.00;99.90
45849;DHT22;31567;54.600;9.842;2023-02-02T06:27:01;6.00;99.90
45849;DHT22;31567;54.600;9.842;2023-02-02T06:30:41;6.00;99.90
45849;DHT22;31567;54.600;9.842;2023-02-02T06:34:20;5.90;99.90
45849;DHT22;31567;54.600;9.842;2023-02-02T06:38:00;5.90;99.90
45849;DHT22;31567;54.600;9.842;2023-02-02T06:41:40;5.90;99.90
45849;DHT22;31567;54.600;9.842;2023-02-02T06:45:19;5.80;99.90
45849;DHT22;31567;54.600;9.842;2023-02-02T06:48:59;5.80;99.90
45849;DHT22;31567;54.600;9.842;2023-02-02T06:52:38;5.70;99.90
45849;DHT22;31567;54.600;9.842;2023-02-02T06:56:18;5.70;99.90
45849;DHT22;31567;54.600;9.842;2023-02-02T06:59:58;5.60;99.90
45849;DHT22;31567;54.600;9.842;2023-02-02T07:03:37;5.60;99.90
45849;DHT22;31567;54.600;9.842;2023-02-02T07:07:17;5.60;99.90
45849;DHT22;31567;54.600;9.842;2023-02-02T07:10:58;5.60;99.90
45849;DHT22;31567;54.600;9.842;2023-02-02T07:14:38;5.60;99.90
45849;DHT22;31567;54.600;9.842;2023-02-02T07:18:17;5.60;99.90
45849;DHT22;31567;54.600;9.842;2023-02-02T07:21:57;5.60;99.90
45849;DHT22;31567;54.600;9.842;2023-02-02T07:25:36;5.60;99.90
45849;DHT22;31567;54.600;9.842;2023-02-02T07:29:16;5.60;99.90
45849;DHT22;31567;54.600;9.842;2023-02-02T07:32:56;5.60;99.90
45849;DHT22;31567;54.600;9.842;2023-02-02T07:36:36;5.60;99.90
45849;DHT22;31567;54.600;9.842;2023-02-02T07:40:15;5.60;99.90
45849;DHT22;31567;54.600;9.842;2023-02-02T07:43:55;5.70;99.90
45849;DHT22;31567;54.600;9.842;2023-02-02T07:47:35;5.70;99.90
45849;DHT22;31567;54.600;9.842;2023-02-02T07:51:16;5.70;99.90
45849;DHT22;31567;54.600;9.842;2023-02-02T07:54:56;5.80;99.90
45849;DHT22;31567;54.600;9.842;2023-02-02T07:58:36;5.80;99.90
45849;DHT22;31567;54.600;9.842;2023-02-02T08:02:16;5.80;99.90
45849;DHT22;31567;54.600;9.842;2023-02-02T08:05:56;5.90;99.90
45849;DHT22;31567;54.600;9.842;2023-02-02T08:09:36;5.90;99.90
45849;DHT22;31567;54.600;9.842;2023-02-02T08:13:16;5.90;99.90
45849;DHT22;31567;54.600;9.842;2023-02-02T08:16:56;5.90;99.90
45849;DHT22;31567;54.600;9.842;2023-02-02T08:20:36;6.00;99.90
45849;DHT22;31567;54.600;9.842;2023-02-02T08:24:15;6.00;99.90
45849;DHT22;31567;54.600;9.842;2023-02-02T08:27:56;6.10;99.90
45849;DHT22;31567;54.600;9.842;2023-02-02T08:31:39;6.10;99.90
45849;DHT22;31567;54.600;9.842;2023-02-02T08:35:22;6.20;99.90
45849;DHT22;31567;54.600;9.842;2023-02-02T08:39:05;6.20;99.90
45849;DHT22;31567;54.600;9.842;2023-02-02T08:42:45;6.20;99.90
45849;DHT22;31567;54.600;9.842;2023-02-02T08:46:25;6.30;99.90
45849;DHT22;31567;54.600;9.842;2023-02-02T08:50:05;6.30;99.90
45849;DHT22;31567;54.600;9.842;2023-02-02T08:53:46;6.30;99.90
45849;DHT22;31567;54.600;9.842;2023-02-02T08:57:26;6.30;99.90
45849;DHT22;31567;54.600;9.842;2023-02-02T09:01:14;6.40;99.90
45849;DHT22;31567;54.600;9.842;2023-02-02T09:04:54;6.40;99.90
45849;DHT22;31567;54.600;9.842;2023-02-02T09:08:34;6.50;99.90
45849;DHT22;31567;54.600;9.842;2023-02-02T09:12:14;6.40;99.90
45849;DHT22;31567;54.600;9.842;2023-02-02T09:15:58;6.60;99.90
45849;DHT22;31567;54.600;9.842;2023-02-02T09:19:38;6.60;99.90
45849;DHT22;31567;54.600;9.842;2023-02-02T09:23:17;6.60;99.90
45849;DHT22;31567;54.600;9.842;2023-02-02T09:26:57;6.70;99.90
45849;DHT22;31567;54.600;9.842;2023-02-02T09:30:37;6.70;99.90
45849;DHT22;31567;54.600;9.842;2023-02-02T09:34:16;6.70;99.90
45849;DHT22;31567;54.600;9.842;2023-02-02T09:37:56;6.70;99.90
45849;DHT22;31567;54.600;9.842;2023-02-02T09:45:38;6.70;99.90
45849;DHT22;31567;54.600;9.842;2023-02-02T09:49:39;6.70;99.90
45849;DHT22;31567;54.600;9.842;2023-02-02T09:57:30;6.90;99.90
45849;DHT22;31567;54.600;9.842;2023-02-02T10:01:15;6.90;99.90
45849;DHT22;31567;54.600;9.842;2023-02-02T10:05:04;6.90;99.90
45849;DHT22;31567;54.600;9.842;2023-02-02T10:08:56;6.90;99.90
45849;DHT22;31567;54.600;9.842;2023-02-02T10:16:37;7.10;99.90
45849;DHT22;31567;54.600;9.842;2023-02-02T10:24:29;7.10;99.90
45849;DHT22;31567;54.600;9.842;2023-02-02T10:28:17;7.10;99.90
45849;DHT22;31567;54.600;9.842;2023-02-02T10:32:19;7.10;99.90
45849;DHT22;31567;54.600;9.842;2023-02-02T10:36:18;7.20;99.90
45849;DHT22;31567;54.600;9.842;2023-02-02T10:47:59;7.20;99.90
45849;DHT22;31567;54.600;9.842;2023-02-02T10:51:40;7.30;99.90
45849;DHT22;31567;54.600;9.842;2023-02-02T10:55:36;7.20;99.90
45849;DHT22;31567;54.600;9.842;2023-02-02T10:59:35;7.30;99.90
45849;DHT22;31567;54.600;9.842;2023-02-02T11:03:27;7.40;99.90
45849;DHT22;31567;54.600;9.842;2023-02-02T11:07:09;7.60;99.90
45849;DHT22;31567;54.600;9.842;2023-02-02T11:10:51;7.70;99.90
45849;DHT22;31567;54.600;9.842;2023-02-02T11:14:41;7.80;99.90
45849;DHT22;31567;54.600;9.842;2023-02-02T11:18:30;7.90;99.90
45849;DHT22;31567;54.600;9.842;2023-02-02T11:26:12;7.80;99.90
45849;DHT22;31567;54.600;9.842;2023-02-02T11:29:53;7.90;99.90
45849;DHT22;31567;54.600;9.842;2023-02-02T11:33:34;7.90;99.20
45849;DHT22;31567;54.600;9.842;2023-02-02T11:37:21;7.90;98.00
45849;DHT22;31567;54.600;9.842;2023-02-02T11:41:06;7.90;97.70
45849;DHT22;31567;54.600;9.842;2023-02-02T11:44:56;8.00;98.50
45849;DHT22;31567;54.600;9.842;2023-02-02T11:48:37;8.10;98.00
45849;DHT22;31567;54.600;9.842;2023-02-02T11:52:20;8.10;97.80
45849;DHT22;31567;54.600;9.842;2023-02-02T11:56:24;8.20;97.80
45849;DHT22;31567;54.600;9.842;2023-02-02T12:03:50;8.50;97.50
45849;DHT22;31567;54.600;9.842;2023-02-02T12:07:31;8.40;97.00
45849;DHT22;31567;54.600;9.842;2023-02-02T12:15:49;8.40;95.90
45849;DHT22;31567;54.600;9.842;2023-02-02T12:32:25;8.60;95.50
45849;DHT22;31567;54.600;9.842;2023-02-02T12:36:00;8.90;96.00
45849;DHT22;31567;54.600;9.842;2023-02-02T12:43:36;9.00;95.40
45849;DHT22;31567;54.600;9.842;2023-02-02T12:47:26;9.00;95.30
45849;DHT22;31567;54.600;9.842;2023-02-02T13:03:25;9.20;94.80
45849;DHT22;31567;54.600;9.842;2023-02-02T13:07:29;9.20;94.80
45849;DHT22;31567;54.600;9.842;2023-02-02T13:11:58;9.20;94.70
45849;DHT22;31567;54.600;9.842;2023-02-02T13:15:39;9.20;94.90
45849;DHT22;31567;54.600;9.842;2023-02-02T13:19:33;9.20;94.90
45849;DHT22;31567;54.600;9.842;2023-02-02T13:23:27;9.20;94.60
45849;DHT22;31567;54.600;9.842;2023-02-02T13:27:13;9.20;94.70
45849;DHT22;31567;54.600;9.842;2023-02-02T13:30:56;9.10;94.60
45849;DHT22;31567;54.600;9.842;2023-02-02T13:34:41;9.10;94.70
45849;DHT22;31567;54.600;9.842;2023-02-02T13:38:26;9.10;94.70
45849;DHT22;31567;54.600;9.842;2023-02-02T13:42:08;9.10;94.80
45849;DHT22;31567;54.600;9.842;2023-02-02T13:49:58;9.10;94.70
45849;DHT22;31567;54.600;9.842;2023-02-02T13:54:06;9.10;94.70
45849;DHT22;31567;54.600;9.842;2023-02-02T14:02:03;9.20;95.00
45849;DHT22;31567;54.600;9.842;2023-02-02T14:06:11;9.40;95.10
45849;DHT22;31567;54.600;9.842;2023-02-02T14:09:52;9.50;94.90
45849;DHT22;31567;54.600;9.842;2023-02-02T14:14:08;9.60;94.80
45849;DHT22;31567;54.600;9.842;2023-02-02T14:18:10;9.70;94.50
45849;DHT22;31567;54.600;9.842;2023-02-02T14:25:47;9.80;94.30
45849;DHT22;31567;54.600;9.842;2023-02-02T14:41:42;9.90;94.30
45849;DHT22;31567;54.600;9.842;2023-02-02T14:45:47;9.90;94.40
45849;DHT22;31567;54.600;9.842;2023-02-02T14:49:31;9.90;94.50
45849;DHT22;31567;54.600;9.842;2023-02-02T14:53:21;9.80;94.50
45849;DHT22;31567;54.600;9.842;2023-02-02T14:57:20;9.70;94.50
45849;DHT22;31567;54.600;9.842;2023-02-02T15:13:04;9.40;94.90
45849;DHT22;31567;54.600;9.842;2023-02-02T15:16:45;9.40;95.00
45849;DHT22;31567;54.600;9.842;2023-02-02T15:20:31;9.30;95.10
45849;DHT22;31567;54.600;9.842;2023-02-02T15:24:21;9.30;95.20
45849;DHT22;31567;54.600;9.842;2023-02-02T15:28:21;9.30;95.20
45849;DHT22;31567;54.600;9.842;2023-02-02T15:32:04;9.30;95.30
45849;DHT22;31567;54.600;9.842;2023-02-02T15:35:46;9.20;95.30
45849;DHT22;31567;54.600;9.842;2023-02-02T15:39:36;9.20;95.30
45849;DHT22;31567;54.600;9.842;2023-02-02T15:43:17;9.10;95.40
45849;DHT22;31567;54.600;9.842;2023-02-02T15:46:56;9.10;95.40
45849;DHT22;31567;54.600;9.842;2023-02-02T15:50:37;9.00;95.50
45849;DHT22;31567;54.600;9.842;2023-02-02T15:54:33;8.90;95.60
45849;DHT22;31567;54.600;9.842;2023-02-02T16:05:50;8.80;95.90
45849;DHT22;31567;54.600;9.842;2023-02-02T16:09:34;8.70;96.00
45849;DHT22;31567;54.600;9.842;2023-02-02T16:13:26;8.60;96.20
45849;DHT22;31567;54.600;9.842;2023-02-02T16:17:23;8.50;96.20
45849;DHT22;31567;54.600;9.842;2023-02-02T16:21:11;8.50;96.40
45849;DHT22;31567;54.600;9.842;2023-02-02T16:24:53;8.50;96.50
45849;DHT22;31567;54.600;9.842;2023-02-02T16:28:34;8.40;96.40
45849;DHT22;31567;54.600;9.842;2023-02-02T16:32:35;8.20;96.50
45849;DHT22;31567;54.600;9.842;2023-02-02T16:36:16;8.20;96.70
45849;DHT22;31567;54.600;9.842;2023-02-02T16:48:39;7.90;97.10
45849;DHT22;31567;54.600;9.842;2023-02-02T16:52:21;7.80;97.30
45849;DHT22;31567;54.600;9.842;2023-02-02T16:56:02;7.70;97.50
45849;DHT22;31567;54.600;9.842;2023-02-02T16:59:46;7.60;98.00
45849;DHT22;31567;54.600;9.842;2023-02-02T17:03:31;7.50;98.00
45849;DHT22;31567;54.600;9.842;2023-02-02T17:07:13;7.50;98.10
45849;DHT22;31567;54.600;9.842;2023-02-02T17:18:55;7.40;98.60
45849;DHT22;31567;54.600;9.842;2023-02-02T17:22:43;7.30;98.70
45849;DHT22;31567;54.600;9.842;2023-02-02T17:26:24;7.20;98.80
45849;DHT22;31567;54.600;9.842;2023-02-02T17:30:04;7.20;99.00
45849;DHT22;31567;54.600;9.842;2023-02-02T17:33:44;7.20;99.10
45849;DHT22;31567;54.600;9.842;2023-02-02T17:37:23;7.20;99.10
45849;DHT22;31567;54.600;9.842;2023-02-02T17:41:03;7.20;99.20
45849;DHT22;31567;54.600;9.842;2023-02-02T17:44:43;7.20;99.30
45849;DHT22;31567;54.600;9.842;2023-02-02T17:48:23;7.10;99.40
45849;DHT22;31567;54.600;9.842;2023-02-02T17:52:02;7.10;99.50
45849;DHT22;31567;54.600;9.842;2023-02-02T17:55:43;7.00;99.70
45849;DHT22;31567;54.600;9.842;2023-02-02T17:59:23;7.10;99.80
45849;DHT22;31567;54.600;9.842;2023-02-02T18:03:25;7.00;99.90
45849;DHT22;31567;54.600;9.842;2023-02-02T18:07:05;7.10;99.90
45849;DHT22;31567;54.600;9.842;2023-02-02T18:10:45;7.00;99.90
45849;DHT22;31567;54.600;9.842;2023-02-02T18:14:25;7.00;99.90
45849;DHT22;31567;54.600;9.842;2023-02-02T18:18:05;6.90;99.90
45849;DHT22;31567;54.600;9.842;2023-02-02T18:21:44;6.90;99.90
45849;DHT22;31567;54.600;9.842;2023-02-02T18:25:24;6.80;99.90
45849;DHT22;31567;54.600;9.842;2023-02-02T18:29:04;6.80;99.90
45849;DHT22;31567;54.600;9.842;2023-02-02T18:32:44;6.80;99.90
45849;DHT22;31567;54.600;9.842;2023-02-02T18:36:24;6.80;99.90
45849;DHT22;31567;54.600;9.842;2023-02-02T18:40:04;6.80;99.90
45849;DHT22;31567;54.600;9.842;2023-02-02T18:43:44;6.80;99.90
45849;DHT22;31567;54.600;9.842;2023-02-02T18:47:24;6.70;99.90
45849;DHT22;31567;54.600;9.842;2023-02-02T18:51:05;6.80;99.90
45849;DHT22;31567;54.600;9.842;2023-02-02T18:54:48;6.80;99.90
45849;DHT22;31567;54.600;9.842;2023-02-02T18:58:28;6.70;99.90
45849;DHT22;31567;54.600;9.842;2023-02-02T19:02:15;6.80;99.90
45849;DHT22;31567;54.600;9.842;2023-02-02T19:05:55;6.90;99.90
45849;DHT22;31567;54.600;9.842;2023-02-02T19:09:53;6.80;99.90
45849;DHT22;31567;54.600;9.842;2023-02-02T19:13:33;6.80;99.90
45849;DHT22;31567;54.600;9.842;2023-02-02T19:17:20;6.90;99.90
45849;DHT22;31567;54.600;9.842;2023-02-02T19:21:00;6.90;99.90
45849;DHT22;31567;54.600;9.842;2023-02-02T19:24:41;7.00;99.90
45849;DHT22;31567;54.600;9.842;2023-02-02T19:28:27;7.00;99.90
45849;DHT22;31567;54.600;9.842;2023-02-02T19:32:18;7.00;99.90
45849;DHT22;31567;54.600;9.842;2023-02-02T19:35:59;7.00;99.90
45849;DHT22;31567;54.600;9.842;2023-02-02T19:39:39;6.90;99.90
45849;DHT22;31567;54.600;9.842;2023-02-02T19:43:28;6.90;99.90
45849;DHT22;31567;54.600;9.842;2023-02-02T19:47:29;6.90;99.90
45849;DHT22;31567;54.600;9.842;2023-02-02T19:55:35;6.90;99.90
45849;DHT22;31567;54.600;9.842;2023-02-02T19:59:17;6.90;99.90
45849;DHT22;31567;54.600;9.842;2023-02-02T20:03:18;6.90;99.90
45849;DHT22;31567;54.600;9.842;2023-02-02T20:06:58;6.90;99.90
45849;DHT22;31567;54.600;9.842;2023-02-02T20:10:39;6.90;99.90
45849;DHT22;31567;54.600;9.842;2023-02-02T20:14:30;6.90;99.90
45849;DHT22;31567;54.600;9.842;2023-02-02T20:18:28;6.90;99.90
45849;DHT22;31567;54.600;9.842;2023-02-02T20:22:33;6.90;99.90
45849;DHT22;31567;54.600;9.842;2023-02-02T20:26:23;6.80;99.90
45849;DHT22;31567;54.600;9.842;2023-02-02T20:30:23;6.80;99.90
45849;DHT22;31567;54.600;9.842;2023-02-02T20:37:56;6.80;99.90
45849;DHT22;31567;54.600;9.842;2023-02-02T20:41:35;6.70;99.90
45849;DHT22;31567;54.600;9.842;2023-02-02T20:45:16;6.70;99.90
45849;DHT22;31567;54.600;9.842;2023-02-02T20:48:56;6.60;99.90
45849;DHT22;31567;54.600;9.842;2023-02-02T20:52:35;6.50;99.90
45849;DHT22;31567;54.600;9.842;2023-02-02T20:56:15;6.50;99.90
45849;DHT22;31567;54.600;9.842;2023-02-02T20:59:54;6.40;99.90
45849;DHT22;31567;54.600;9.842;2023-02-02T21:03:36;6.40;99.90
45849;DHT22;31567;54.600;9.842;2023-02-02T21:07:16;6.40;99.90
45849;DHT22;31567;54.600;9.842;2023-02-02T21:10:56;6.40;99.90
45849;DHT22;31567;54.600;9.842;2023-02-02T21:14:36;6.50;99.90
45849;DHT22;31567;54.600;9.842;2023-02-02T21:18:16;6.50;99.90
45849;DHT22;31567;54.600;9.842;2023-02-02T21:21:55;6.60;99.90
45849;DHT22;31567;54.600;9.842;2023-02-02T21:25:35;6.60;99.90
45849;DHT22;31567;54.600;9.842;2023-02-02T21:29:15;6.70;99.90
45849;DHT22;31567;54.600;9.842;2023-02-02T21:32:54;6.70;99.90
45849;DHT22;31567;54.600;9.842;2023-02-02T21:36:35;6.60;99.90
45849;DHT22;31567;54.600;9.842;2023-02-02T21:40:21;6.60;99.90
45849;DHT22;31567;54.600;9.842;2023-02-02T21:44:11;6.60;99.90
45849;DHT22;31567;54.600;9.842;2023-02-02T21:47:54;6.60;99.90
45849;DHT22;31567;54.600;9.842;2023-02-02T21:51:36;6.50;99.90
45849;DHT22;31567;54.600;9.842;2023-02-02T21:55:34;6.40;99.90
45849;DHT22;31567;54.600;9.842;2023-02-02T21:59:17;6.40;99.90
45849;DHT22;31567;54.600;9.842;2023-02-02T22:02:58;6.20;99.90
45849;DHT22;31567;54.600;9.842;2023-02-02T22:06:38;6.20;99.90
45849;DHT22;31567;54.600;9.842;2023-02-02T22:10:38;6.20;99.90
45849;DHT22;31567;54.600;9.842;2023-02-02T22:14:37;6.10;99.90
45849;DHT22;31567;54.600;9.842;2023-02-02T22:18:22;6.00;99.90
45849;DHT22;31567;54.600;9.842;2023-02-02T22:22:14;6.00;99.90
45849;DHT22;31567;54.600;9.842;2023-02-02T22:25:55;6.00;99.90
45849;DHT22;31567;54.600;9.842;2023-02-02T22:29:36;6.00;99.90
45849;DHT22;31567;54.600;9.842;2023-02-02T22:33:16;6.00;99.90
45849;DHT22;31567;54.600;9.842;2023-02-02T22:36:55;6.00;99.90
45849;DHT22;31567;54.600;9.842;2023-02-02T22:40:35;6.00;99.90
45849;DHT22;31567;54.600;9.842;2023-02-02T22:44:14;6.00;99.90
45849;DHT22;31567;54.600;9.842;2023-02-02T22:47:54;6.00;99.90
45849;DHT22;31567;54.600;9.842;2023-02-02T22:51:33;5.90;99.90
45849;DHT22;31567;54.600;9.842;2023-02-02T22:55:13;5.90;99.90
45849;DHT22;31567;54.600;9.842;2023-02-02T22:58:53;5.90;99.90
45849;DHT22;31567;54.600;9.842;2023-02-02T23:02:32;6.00;99.90
45849;DHT22;31567;54.600;9.842;2023-02-02T23:06:12;6.10;99.90
45849;DHT22;31567;54.600;9.842;2023-02-02T23:09:51;6.20;99.90
45849;DHT22;31567;54.600;9.842;2023-02-02T23:13:31;6.30;99.90
45849;DHT22;31567;54.600;9.842;2023-02-02T23:17:11;6.30;99.90
45849;DHT22;31567;54.600;9.842;2023-02-02T23:20:50;6.40;99.90
45849;DHT22;31567;54.600;9.842;2023-02-02T23:24:30;6.40;99.90
45849;DHT22;31567;54.600;9.842;2023-02-02T23:28:09;6.30;99.90
45849;DHT22;31567;54.600;9.842;2023-02-02T23:31:49;6.40;99.90
45849;DHT22;31567;54.600;9.842;2023-02-02T23:35:28;6.40;99.90
45849;DHT22;31567;54.600;9.842;2023-02-02T23:39:08;6.40;99.90
45849;DHT22;31567;54.600;9.842;2023-02-02T23:42:47;6.40;99.90
45849;DHT22;31567;54.600;9.842;2023-02-02T23:46:27;6.30;99.90
45849;DHT22;31567;54.600;9.842;2023-02-02T23:50:08;6.30;99.90
45849;DHT22;31567;54.600;9.842;2023-02-02T23:53:48;6.30;99.90
45849;DHT22;31567;54.600;9.842;2023-02-02T23:57:28;6.40;99.90
